createdAt,value
2023-04-30T00:01:13.188Z,99172.59
2023-04-30T00:04:00.803Z,99165.88
2023-04-30T00:06:46.411Z,99170.66
2023-04-30T00:09:33.416Z,99173.88
2023-04-30T00:12:19.177Z,99169.97
2023-04-30T00:15:05.220Z,99176.28
2023-04-30T00:17:50.588Z,99181.91
2023-04-30T00:20:36.175Z,99184.34
2023-04-30T00:23:21.666Z,99183.56
2023-04-30T00:26:07.179Z,99184.78
2023-04-30T00:28:52.822Z,99181.66
2023-04-30T00:31:38.615Z,99180.06
2023-04-30T00:34:24.290Z,99184.06
2023-04-30T00:37:09.793Z,99188.03
2023-04-30T00:39:55.649Z,99187.28
2023-04-30T00:42:41.206Z,99186.91
2023-04-30T00:45:26.439Z,99192.47
2023-04-30T00:48:12.059Z,99196.47
2023-04-30T00:50:57.378Z,99195.69
2023-04-30T00:53:43.881Z,99198.88
2023-04-30T00:56:31.843Z,99198.88
2023-04-30T00:59:17.459Z,99195.75
2023-04-30T01:02:04.090Z,99200.53
2023-04-30T01:04:50.817Z,99206.50
2023-04-30T01:07:46.447Z,99204.50
2023-04-30T01:10:55.105Z,99213.28
2023-04-30T01:14:08.303Z,99217.25
2023-04-30T01:17:13.596Z,99215.25
2023-04-30T01:20:01.306Z,99222.81
2023-04-30T01:23:11.456Z,99224.47
2023-04-30T01:26:03.028Z,99232.81
2023-04-30T01:28:51.003Z,99237.59
2023-04-30T01:31:36.514Z,99240.38
2023-04-30T01:34:22.147Z,99236.00
2023-04-30T01:37:22.702Z,99244.34
2023-04-30T01:40:29.256Z,99247.56
2023-04-30T01:43:23.835Z,99242.78
2023-04-30T01:46:23.176Z,99252.31
2023-04-30T01:49:19.677Z,99252.31
2023-04-30T01:52:42.932Z,99257.09
2023-04-30T01:55:55.787Z,99258.28
2023-04-30T01:58:42.646Z,99266.63
2023-04-30T02:01:31.252Z,99265.03
2023-04-30T02:04:17.010Z,99272.19
2023-04-30T02:07:02.634Z,99281.72
2023-04-30T02:09:47.904Z,99284.94
2023-04-30T02:12:33.420Z,99284.94
2023-04-30T02:15:19.379Z,99290.50
2023-04-30T02:18:05.883Z,99301.63
2023-04-30T02:20:52.074Z,99303.59
2023-04-30T02:23:37.891Z,99309.59
2023-04-30T02:26:23.921Z,99311.16
2023-04-30T02:29:09.472Z,99316.72
2023-04-30T02:31:59.185Z,99320.72
2023-04-30T02:34:45.204Z,99317.94
2023-04-30T02:37:30.608Z,99317.94
2023-04-30T02:40:15.958Z,99323.47
2023-04-30T02:43:01.559Z,99330.22
2023-04-30T02:45:47.105Z,99328.69
2023-04-30T02:48:33.304Z,99338.56
2023-04-30T02:51:18.732Z,99335.00
2023-04-30T02:54:03.961Z,99337.78
2023-04-30T02:56:49.177Z,99341.78
2023-04-30T02:59:34.416Z,99350.91
2023-04-30T03:02:21.706Z,99343.75
2023-04-30T03:05:07.728Z,99343.75
2023-04-30T03:07:53.344Z,99352.53
2023-04-30T03:10:38.665Z,99356.47
2023-04-30T03:13:26.174Z,99358.03
2023-04-30T03:16:11.617Z,99362.41
2023-04-30T03:18:57.433Z,99361.94
2023-04-30T03:21:42.688Z,99363.16
2023-04-30T03:24:28.189Z,99363.59
2023-04-30T03:27:14.320Z,99365.16
2023-04-30T03:29:59.778Z,99372.28
2023-04-30T03:32:45.732Z,99373.50
2023-04-30T03:35:30.896Z,99372.69
2023-04-30T03:38:16.296Z,99379.06
2023-04-30T03:41:01.515Z,99384.63
2023-04-30T03:43:46.803Z,99387.41
2023-04-30T03:46:32.435Z,99373.91
2023-04-30T03:49:19.195Z,99387.41
2023-04-30T03:52:07.207Z,99389.38
2023-04-30T03:54:53.662Z,99392.16
2023-04-30T03:57:40.684Z,99385.81
2023-04-30T04:00:27.069Z,99399.72
2023-04-30T04:03:13.219Z,99400.09
2023-04-30T04:06:00.726Z,99400.03
2023-04-30T04:08:46.455Z,99396.84
2023-04-30T04:11:34.231Z,99402.78
2023-04-30T04:14:21.046Z,99400.72
2023-04-30T04:17:08.474Z,99407.88
2023-04-30T04:19:54.598Z,99418.91
2023-04-30T04:22:40.194Z,99425.63
2023-04-30T04:25:27.826Z,99420.44
2023-04-30T04:28:13.697Z,99430.72
2023-04-30T04:30:59.851Z,99433.44
2023-04-30T04:33:46.976Z,99433.03
2023-04-30T04:36:34.482Z,99435.38
2023-04-30T04:39:20.809Z,99444.09
2023-04-30T04:42:06.836Z,99446.03
2023-04-30T04:44:52.557Z,99440.06
2023-04-30T04:47:38.459Z,99449.53
2023-04-30T04:50:24.725Z,99455.09
2023-04-30T04:53:10.973Z,99460.22
2023-04-30T04:55:57.002Z,99455.03
2023-04-30T04:58:43.081Z,99456.97
2023-04-30T05:01:29.635Z,99458.16
2023-04-30T05:04:15.243Z,99453.41
2023-04-30T05:07:01.238Z,99469.28
2023-04-30T05:09:47.468Z,99465.31
2023-04-30T05:12:33.009Z,99472.44
2023-04-30T05:15:18.836Z,99467.66
2023-04-30T05:18:04.141Z,99479.59
2023-04-30T05:20:49.532Z,99483.94
2023-04-30T05:23:35.332Z,99487.94
2023-04-30T05:26:21.317Z,99487.50
2023-04-30T05:29:07.163Z,99485.16
2023-04-30T05:31:52.476Z,99487.50
2023-04-30T05:34:37.821Z,99493.06
2023-04-30T05:37:23.092Z,99489.50
2023-04-30T05:40:11.366Z,99492.28
2023-04-30T05:42:57.462Z,99497.06
2023-04-30T05:45:43.163Z,99496.66
2023-04-30T05:48:29.275Z,99499.44
2023-04-30T05:51:15.038Z,99500.22
2023-04-30T05:54:00.540Z,99505.78
2023-04-30T05:56:48.835Z,99493.88
2023-04-30T05:59:34.365Z,99497.44
2023-04-30T06:02:19.853Z,99497.44
2023-04-30T06:05:07.907Z,99498.22
2023-04-30T06:07:53.543Z,99499.78
2023-04-30T06:10:39.302Z,99505.34
2023-04-30T06:13:24.845Z,99508.97
2023-04-30T06:16:10.049Z,99508.97
2023-04-30T06:18:56.755Z,99505.81
2023-04-30T06:21:44.379Z,99504.63
2023-04-30T06:24:31.586Z,99510.59
2023-04-30T06:27:18.563Z,99510.25
2023-04-30T06:30:05.060Z,99508.25
2023-04-30T06:32:50.553Z,99511.38
2023-04-30T06:35:36.491Z,99512.53
2023-04-30T06:38:22.180Z,99510.56
2023-04-30T06:41:08.051Z,99509.34
2023-04-30T06:43:53.587Z,99509.72
2023-04-30T06:46:39.080Z,99515.28
2023-04-30T06:49:24.775Z,99508.47
2023-04-30T06:52:10.205Z,99510.44
2023-04-30T06:54:55.477Z,99512.78
2023-04-30T06:57:41.285Z,99517.56
2023-04-30T07:00:27.322Z,99511.19
2023-04-30T07:03:14.107Z,99515.16
2023-04-30T07:05:59.986Z,99512.72
2023-04-30T07:08:45.380Z,99517.09
2023-04-30T07:11:31.141Z,99518.66
2023-04-30T07:14:16.785Z,99525.44
2023-04-30T07:17:02.263Z,99525.44
2023-04-30T07:19:48.129Z,99522.22
2023-04-30T07:22:36.052Z,99520.22
2023-04-30T07:25:22.269Z,99523.38
2023-04-30T07:28:08.874Z,99520.59
2023-04-30T07:30:55.535Z,99527.75
2023-04-30T07:33:41.321Z,99522.53
2023-04-30T07:36:27.674Z,99523.75
2023-04-30T07:39:14.073Z,99529.31
2023-04-30T07:41:59.751Z,99527.75
2023-04-30T07:44:46.782Z,99534.50
2023-04-30T07:47:33.614Z,99540.88
2023-04-30T07:50:22.300Z,99537.28
2023-04-30T07:53:09.875Z,99539.69
2023-04-30T07:55:55.490Z,99536.91
2023-04-30T07:58:41.769Z,99535.72
2023-04-30T08:01:28.022Z,99544.06
2023-04-30T08:04:13.493Z,99540.06
2023-04-30T08:07:02.195Z,99540.88
2023-04-30T08:09:47.764Z,99538.88
2023-04-30T08:12:37.156Z,99549.63
2023-04-30T08:15:22.634Z,99550.00
2023-04-30T08:18:09.837Z,99549.63
2023-04-30T08:20:55.749Z,99552.41
2023-04-30T08:23:41.887Z,99549.63
2023-04-30T08:26:27.726Z,99552.41
2023-04-30T08:29:13.621Z,99544.06
2023-04-30T08:32:03.064Z,99540.03
2023-04-30T08:34:48.923Z,99546.38
2023-04-30T08:37:35.968Z,99547.59
2023-04-30T08:40:22.141Z,99552.34
2023-04-30T08:43:13.057Z,99549.16
2023-04-30T08:46:00.342Z,99551.56
2023-04-30T08:48:48.376Z,99551.56
2023-04-30T08:51:35.051Z,99550.00
2023-04-30T08:54:21.828Z,99550.00
2023-04-30T08:57:08.080Z,99553.97
2023-04-30T08:59:54.914Z,99550.78
2023-04-30T09:02:42.495Z,99554.72
2023-04-30T09:05:28.671Z,99556.66
2023-04-30T09:08:19.610Z,99556.22
2023-04-30T09:11:22.014Z,99558.97
2023-04-30T09:14:08.290Z,99560.88
2023-04-30T09:16:54.036Z,99559.69
2023-04-30T09:19:39.946Z,99561.25
2023-04-30T09:22:27.370Z,99562.44
2023-04-30T09:25:13.966Z,99560.78
2023-04-30T09:28:13.388Z,99562.03
2023-04-30T09:31:00.205Z,99566.38
2023-04-30T09:33:46.914Z,99559.25
2023-04-30T09:36:33.349Z,99557.66
2023-04-30T09:39:19.074Z,99561.59
2023-04-30T09:42:11.214Z,99556.81
2023-04-30T09:45:00.360Z,99549.66
2023-04-30T09:47:46.217Z,99555.59
2023-04-30T09:50:40.406Z,99548.84
2023-04-30T09:53:28.018Z,99539.63
2023-04-30T09:56:19.963Z,99543.19
2023-04-30T09:59:08.680Z,99542.78
2023-04-30T10:01:54.749Z,99544.00
2023-04-30T10:04:44.871Z,99538.72
2023-04-30T10:07:36.447Z,99535.88
2023-04-30T10:10:23.065Z,99533.00
2023-04-30T10:13:14.707Z,99530.59
2023-04-30T10:16:33.950Z,99530.91
2023-04-30T10:19:24.420Z,99532.47
2023-04-30T10:22:10.934Z,99522.91
2023-04-30T10:24:57.035Z,99523.28
2023-04-30T10:27:42.703Z,99524.47
2023-04-30T10:30:31.779Z,99521.28
2023-04-30T10:33:50.029Z,99519.63
2023-04-30T10:36:51.234Z,99506.06
2023-04-30T10:39:38.691Z,99528.34
2023-04-30T10:42:24.601Z,99524.41
2023-04-30T10:45:13.233Z,99515.63
2023-04-30T10:47:58.947Z,99507.97
2023-04-30T10:50:46.693Z,99504.38
2023-04-30T10:53:32.796Z,99517.84
2023-04-30T10:56:35.610Z,99517.84
2023-04-30T10:59:21.087Z,99511.50
2023-04-30T11:02:10.850Z,99503.13
2023-04-30T11:05:09.736Z,99507.50
2023-04-30T11:07:58.990Z,99507.06
2023-04-30T11:11:02.818Z,99497.16
2023-04-30T11:13:57.946Z,99497.94
2023-04-30T11:16:44.188Z,99488.44
2023-04-30T11:19:30.273Z,99483.63
2023-04-30T11:22:17.427Z,99478.06
2023-04-30T11:25:13.676Z,99489.22
2023-04-30T11:28:01.098Z,99485.66
2023-04-30T11:30:57.723Z,99486.44
2023-04-30T11:33:43.476Z,99487.66
2023-04-30T11:36:31.968Z,99490.06
2023-04-30T11:39:19.546Z,99490.06
2023-04-30T11:42:11.236Z,99488.84
2023-04-30T11:45:09.479Z,99493.69
2023-04-30T11:47:55.293Z,99489.78
2023-04-30T11:50:43.183Z,99490.19
2023-04-30T11:53:33.305Z,99489.06
2023-04-30T11:56:24.457Z,99487.06
2023-04-30T11:59:11.243Z,99482.69
2023-04-30T12:01:56.701Z,99478.34
2023-04-30T12:04:47.291Z,99470.00
2023-04-30T12:07:32.800Z,99471.19
2023-04-30T12:10:20.119Z,99470.44
2023-04-30T12:13:05.446Z,99476.00
2023-04-30T12:15:59.614Z,99467.63
2023-04-30T12:18:45.393Z,99470.00
2023-04-30T12:21:31.664Z,99471.97
2023-04-30T12:24:19.042Z,99472.06
2023-04-30T12:27:05.541Z,99467.78
2023-04-30T12:29:51.952Z,99469.78
2023-04-30T12:32:39.385Z,99462.69
2023-04-30T12:35:27.871Z,99461.13
2023-04-30T12:38:18.558Z,99462.78
2023-04-30T12:41:15.137Z,99454.94
2023-04-30T12:44:26.225Z,99455.34
2023-04-30T12:47:12.365Z,99454.19
2023-04-30T12:49:58.900Z,99452.19
2023-04-30T12:52:46.248Z,99445.50
2023-04-30T12:55:31.840Z,99443.91
2023-04-30T12:58:17.685Z,99438.81
2023-04-30T13:01:03.541Z,99449.56
2023-04-30T13:03:49.026Z,99445.22
2023-04-30T13:06:35.369Z,99443.28
2023-04-30T13:09:22.265Z,99430.59
2023-04-30T13:12:08.438Z,99432.59
2023-04-30T13:14:53.998Z,99427.44
2023-04-30T13:17:39.646Z,99434.56
2023-04-30T13:20:25.577Z,99421.09
2023-04-30T13:23:14.483Z,99419.50
2023-04-30T13:26:00.580Z,99420.75
2023-04-30T13:28:46.485Z,99416.72
2023-04-30T13:31:32.120Z,99411.63
2023-04-30T13:34:17.438Z,99412.81
2023-04-30T13:37:02.804Z,99394.91
2023-04-30T13:39:48.292Z,99407.56
2023-04-30T13:42:34.320Z,99410.34
2023-04-30T13:45:19.586Z,99413.13
2023-04-30T13:48:05.012Z,99402.03
2023-04-30T13:50:52.175Z,99400.84
2023-04-30T13:53:37.715Z,99397.94
2023-04-30T13:56:24.272Z,99401.78
2023-04-30T13:59:10.103Z,99403.31
2023-04-30T14:01:56.026Z,99397.31
2023-04-30T14:04:48.688Z,99397.25
2023-04-30T14:07:40.473Z,99394.38
2023-04-30T14:10:26.172Z,99384.31
2023-04-30T14:13:11.254Z,99388.69
2023-04-30T14:15:56.505Z,99384.25
2023-04-30T14:18:41.763Z,99377.03
2023-04-30T14:21:28.680Z,99378.97
2023-04-30T14:24:15.684Z,99368.97
2023-04-30T14:27:03.304Z,99370.13
2023-04-30T14:29:49.383Z,99369.25
2023-04-30T14:32:38.672Z,99372.41
2023-04-30T14:35:24.399Z,99372.41
2023-04-30T14:38:09.914Z,99371.53
2023-04-30T14:40:55.745Z,99373.81
2023-04-30T14:43:41.670Z,99361.44
2023-04-30T14:46:27.448Z,99361.03
2023-04-30T14:49:13.310Z,99361.81
2023-04-30T14:51:58.533Z,99361.03
2023-04-30T14:54:44.314Z,99358.59
2023-04-30T14:57:29.887Z,99363.28
2023-04-30T15:00:16.450Z,99361.28
2023-04-30T15:03:02.052Z,99362.88
2023-04-30T15:05:47.580Z,99349.72
2023-04-30T15:08:33.234Z,99355.19
2023-04-30T15:11:18.458Z,99358.34
2023-04-30T15:14:04.361Z,99352.78
2023-04-30T15:16:49.848Z,99359.16
2023-04-30T15:19:35.212Z,99348.00
2023-04-30T15:22:21.099Z,99355.13
2023-04-30T15:25:07.160Z,99357.91
2023-04-30T15:27:53.099Z,99354.25
2023-04-30T15:30:39.254Z,99356.63
2023-04-30T15:33:27.583Z,99353.81
2023-04-30T15:36:13.397Z,99348.63
2023-04-30T15:38:59.199Z,99354.59
2023-04-30T15:41:44.948Z,99354.19
2023-04-30T15:44:30.868Z,99354.19
2023-04-30T15:47:16.336Z,99351.41
2023-04-30T15:50:01.496Z,99351.31
2023-04-30T15:52:47.493Z,99348.94
2023-04-30T15:55:33.086Z,99344.47
2023-04-30T15:58:18.495Z,99340.97
2023-04-30T16:01:04.262Z,99343.41
2023-04-30T16:03:49.773Z,99335.03
2023-04-30T16:06:35.714Z,99337.88
2023-04-30T16:09:21.478Z,99335.91
2023-04-30T16:12:07.309Z,99339.47
2023-04-30T16:14:53.680Z,99335.03
2023-04-30T16:17:39.191Z,99339.38
2023-04-30T16:20:24.704Z,99339.38
2023-04-30T16:23:10.338Z,99333.44
2023-04-30T16:25:56.490Z,99338.25
2023-04-30T16:28:42.125Z,99333.44
2023-04-30T16:31:28.052Z,99326.75
2023-04-30T16:34:13.691Z,99325.53
2023-04-30T16:36:59.055Z,99321.19
2023-04-30T16:39:44.385Z,99317.53
2023-04-30T16:42:31.396Z,99327.88
2023-04-30T16:45:17.276Z,99324.31
2023-04-30T16:48:02.972Z,99321.97
2023-04-30T16:50:48.202Z,99319.63
2023-04-30T16:53:33.986Z,99321.19
2023-04-30T16:56:20.439Z,99324.41
2023-04-30T16:59:06.406Z,99319.25
2023-04-30T17:01:56.377Z,99316.06
2023-04-30T17:04:42.095Z,99316.41
2023-04-30T17:07:27.615Z,99311.25
2023-04-30T17:10:13.280Z,99310.13
2023-04-30T17:13:01.118Z,99319.25
2023-04-30T17:15:46.569Z,99319.25
2023-04-30T17:18:32.298Z,99324.06
2023-04-30T17:21:18.532Z,99322.47
2023-04-30T17:24:05.310Z,99323.28
2023-04-30T17:26:51.068Z,99328.94
2023-04-30T17:29:36.281Z,99323.00
2023-04-30T17:32:21.934Z,99330.56
2023-04-30T17:35:07.804Z,99326.22
2023-04-30T17:37:56.216Z,99325.00
2023-04-30T17:40:41.995Z,99329.44
2023-04-30T17:43:27.724Z,99320.28
2023-04-30T17:46:14.422Z,99322.28
2023-04-30T17:49:03.661Z,99325.06
2023-04-30T17:51:49.272Z,99327.03
2023-04-30T17:54:34.657Z,99329.00
2023-04-30T17:57:20.158Z,99329.81
2023-04-30T18:00:07.265Z,99329.34
2023-04-30T18:03:02.148Z,99329.81
2023-04-30T18:05:47.662Z,99330.56
2023-04-30T18:08:33.169Z,99336.94
2023-04-30T18:11:18.681Z,99332.06
2023-04-30T18:14:05.150Z,99338.06
2023-04-30T18:16:51.617Z,99334.56
2023-04-30T18:19:44.436Z,99343.38
2023-04-30T18:22:30.024Z,99340.22
2023-04-30T18:25:17.036Z,99337.44
2023-04-30T18:28:03.914Z,99335.44
2023-04-30T18:30:49.855Z,99340.66
2023-04-30T18:33:36.419Z,99343.44
2023-04-30T18:36:23.562Z,99340.66
2023-04-30T18:39:12.105Z,99342.66
2023-04-30T18:41:57.545Z,99340.66
2023-04-30T18:44:42.923Z,99343.44
2023-04-30T18:47:28.299Z,99344.22
2023-04-30T18:50:17.422Z,99348.25
2023-04-30T18:53:02.864Z,99353.81
2023-04-30T18:55:48.241Z,99351.88
2023-04-30T18:58:33.643Z,99356.31
2023-04-30T19:01:21.553Z,99364.25
2023-04-30T19:04:09.227Z,99356.66
2023-04-30T19:06:55.821Z,99351.88
2023-04-30T19:09:41.213Z,99361.81
2023-04-30T19:12:26.364Z,99355.88
2023-04-30T19:15:14.997Z,99367.44
2023-04-30T19:18:00.711Z,99363.88
2023-04-30T19:21:03.570Z,99362.69
2023-04-30T19:23:49.659Z,99368.94
2023-04-30T19:26:37.537Z,99364.94
2023-04-30T19:29:24.630Z,99357.00
2023-04-30T19:32:10.112Z,99360.56
2023-04-30T19:34:56.005Z,99361.81
2023-04-30T19:37:41.218Z,99354.31
2023-04-30T19:40:27.477Z,99356.75
2023-04-30T19:43:13.887Z,99360.03
2023-04-30T19:45:59.724Z,99362.44
2023-04-30T19:48:46.192Z,99362.91
2023-04-30T19:51:31.958Z,99358.97
2023-04-30T19:54:17.955Z,99364.63
2023-04-30T19:57:03.652Z,99367.47
2023-04-30T19:59:49.286Z,99375.03
2023-04-30T20:02:35.227Z,99372.34
2023-04-30T20:05:21.897Z,99376.75
2023-04-30T20:08:08.502Z,99373.28
2023-04-30T20:10:54.951Z,99366.91
2023-04-30T20:13:40.834Z,99369.06
2023-04-30T20:16:26.051Z,99368.34
2023-04-30T20:19:13.159Z,99365.97
2023-04-30T20:21:58.839Z,99363.28
2023-04-30T20:24:44.907Z,99357.31
2023-04-30T20:27:30.477Z,99362.16
2023-04-30T20:30:16.420Z,99359.03
2023-04-30T20:33:02.364Z,99363.81
2023-04-30T20:35:48.411Z,99365.88
2023-04-30T20:38:33.730Z,99362.38
2023-04-30T20:41:19.778Z,99357.66
2023-04-30T20:44:05.273Z,99359.72
2023-04-30T20:46:50.714Z,99366.16
2023-04-30T20:49:36.078Z,99359.00
2023-04-30T20:52:21.357Z,99357.81
2023-04-30T20:55:06.846Z,99368.94
2023-04-30T20:57:52.627Z,99365.78
2023-04-30T21:00:38.213Z,99358.63
2023-04-30T21:03:23.708Z,99353.06
2023-04-30T21:06:09.147Z,99358.72
2023-04-30T21:08:54.466Z,99354.81
2023-04-30T21:11:39.652Z,99358.78
2023-04-30T21:14:25.181Z,99359.19
2023-04-30T21:17:10.593Z,99354.06
2023-04-30T21:19:57.152Z,99358.06
2023-04-30T21:22:42.788Z,99355.28
2023-04-30T21:25:27.927Z,99354.91
2023-04-30T21:28:13.236Z,99362.47
2023-04-30T21:30:58.498Z,99359.69
2023-04-30T21:33:43.749Z,99354.53
2023-04-30T21:36:30.130Z,99351.75
2023-04-30T21:39:15.645Z,99362.09
2023-04-30T21:42:01.173Z,99361.31
2023-04-30T21:44:46.557Z,99351.44
2023-04-30T21:47:31.978Z,99354.22
2023-04-30T21:50:17.257Z,99349.84
2023-04-30T21:53:03.634Z,99341.91
2023-04-30T21:55:49.545Z,99344.69
2023-04-30T21:58:35.910Z,99341.13
2023-04-30T22:01:24.398Z,99349.47
2023-04-30T22:04:09.609Z,99343.13
2023-04-30T22:06:54.783Z,99342.34
2023-04-30T22:09:40.482Z,99342.78
2023-04-30T22:12:26.177Z,99344.00
2023-04-30T22:15:12.209Z,99344.78
2023-04-30T22:17:58.240Z,99340.41
2023-04-30T22:20:43.575Z,99336.06
2023-04-30T22:23:28.973Z,99334.47
2023-04-30T22:26:15.428Z,99329.28
2023-04-30T22:29:00.750Z,99329.72
2023-04-30T22:31:46.225Z,99328.91
2023-04-30T22:34:37.440Z,99320.59
2023-04-30T22:37:23.186Z,99326.13
2023-04-30T22:40:09.166Z,99317.78
2023-04-30T22:42:54.807Z,99315.47
2023-04-30T22:45:40.544Z,99320.59
2023-04-30T22:48:27.699Z,99310.25
2023-04-30T22:51:13.215Z,99309.13
2023-04-30T22:53:58.505Z,99306.34
2023-04-30T22:56:44.011Z,99301.97
2023-04-30T22:59:29.273Z,99299.97
2023-04-30T23:02:15.570Z,99301.56
2023-04-30T23:05:00.849Z,99299.19
2023-04-30T23:07:49.081Z,99303.56
2023-04-30T23:10:34.648Z,99303.97
2023-04-30T23:13:19.946Z,99302.75
2023-04-30T23:16:08.749Z,99299.19
2023-04-30T23:18:54.389Z,99299.63
2023-04-30T23:21:40.322Z,99297.19
2023-04-30T23:24:25.546Z,99293.63
2023-04-30T23:27:11.385Z,99299.19
2023-04-30T23:29:57.532Z,99291.28
2023-04-30T23:32:43.285Z,99291.28
2023-04-30T23:35:28.495Z,99284.16
2023-04-30T23:38:15.314Z,99293.28
2023-04-30T23:41:02.480Z,99291.72
2023-04-30T23:43:47.695Z,99275.44
2023-04-30T23:46:33.188Z,99283.38
2023-04-30T23:49:19.050Z,99275.03
2023-04-30T23:52:04.587Z,99276.22
2023-04-30T23:54:50.496Z,99277.00
2023-04-30T23:57:36.862Z,99271.03
